Lake Fork, ID (83635)

10:47 PM MST on February 10, 2016 (GMT -0700)
McCall | | Change Station
CLOSE
Current Station
Airport
Location: McCall,
Elevation: 5020 ft
Nearby Weather Stations

Elev 5020 ft 44.89 °N, 116.10 °W | Updated 56 minutes ago

Mostly Cloudy
Mostly Cloudy
30 °F
Feels Like 30 °F
N
0
Wind Variable Wind from North

Today
High -- | Low -- °F
--% Chance of Precip.
Yesterday
High -- | Low -- °F
Precip. -- in
Pressure 30.47 in
Visibility 10.0 miles
Clouds Scattered Clouds 9000 ft
Scattered Clouds 12000 ft
Dew Point 27 °F
Humidity 88%
Rainfall 0.00 in
Snow Depth Not available.
7:52 AM 6:05 PM
Waxing Crescent, 9% visible
METAR KMYL 110451Z AUTO 00000KT 10SM SCT090 SCT120 M01/M03 A3035 RMK AO2 SLP316 T10111028
Pressure 30.47 in
Visibility 10.0 miles
Clouds Scattered Clouds 9000 ft
Scattered Clouds 12000 ft
Dew Point 27 °F
Humidity 88%
Rainfall 0.00 in
Snow Depth Not available.
7:52 AM 6:05 PM
Waxing Crescent, 9% visible
METAR KMYL 110451Z AUTO 00000KT 10SM SCT090 SCT120 M01/M03 A3035 RMK AO2 SLP316 T10111028

10-Day Weather Forecast

Almanac

Astronomy

Feb. 10, 2016 Rise Set
Actual Time
Civil Twilight
Nautical Twilight
Astronomical Twilight
Moon
Length of Visible Light
Length of Day
Tomorrow will be .
, % of the Moon is Illuminated

Today's Extremes

State Highs State Lows

Community

WunderPhotos

Upload Photos

1,892,023 photos uploaded!

WunderBlog® & News

Nearby

Air Quality

  Air Quality AQ Index Pollutant
Not available.

Snow Depth

Station Depth Elevation

Earthquake Activity

City Distance Mag. Time & Date
Minimum magnitude displayed is 2.5.

Coastal Water Temperatures

Place Temperature

Stations

Nearby Weather Stations

Station Location Temp. Windchill Dew Point Humidity Wind Precip. Elev Updated Type
                   

Watches & Warnings

There are currently no watches in effect.